メインページ
METAR-TAF:

METAR-TAF

空港 :

パルマ・デ・マヨルカ空港

パルマ・デ・マリョルカ, スペイン

緯度: 39-33N, 経度: 002-44E, 海抜: 4m

現時点の気象観測

当レポートは40分前の18:30(UTC)に作成
東/北東の風 7kt
気温 28°C
湿度 51%
気圧 1018 hPa
視程10km以上
1,500メートル以下は雲なし、積乱雲なし

METAR: LEPA 191830Z 06007KT CAVOK 28/17 Q1018 NOSIG

時間: 21:10 (19:10 UTC)

予報

当レポートは2時間10分前の17:00(UTC)に作成
予報は19日の 18時(UTC)から 20日の 18時(UTC)まで有効
の風 8kt
視程10km以上
高度2500ftの雲はほとんどない
高度5000ftの雲は散在している
19日の 18時(UTC)から 19日の 21時(UTC)まで徐々に
変向風 3kt
20日の 08時(UTC)から 20日の 10時(UTC)まで徐々に
北東の風 10kt

TAF: LEPA 191700Z 1918/2018 36008KT 9999 FEW025 SCT050 TX34/2013Z TN23/2006Z BECMG 1918/1921 VRB03KT BECMG 2008/2010 04010KT

4,000以上の空港の気象観測と天気予報(METAR報とTAF報)

利用可能な観測所は地図上に黄色い丸と赤い丸で示す。

丸の上にカーソルを重ねると観測所名を参照できる。

次にクリックすると気象観測と天気予報を参照できる。

マップの切り替え:黒色「×」印の緑ボタンをクリックして拡大、「-」印の緑ボタンをクリックして縮小、緑色の三角印をクリックして隣りの地図に切り替え


METAR-TAF: